Casnovia, Michigan
Current Conditions -  °F | °C
As of 9:31 PM on Saturday 25 Oct 2014 (Local Time) from KFFX Reporting Station
Clear Clear  
Wind Chill: 56°   Ceiling: Unl
Heat Index: 56°   Visibility: 10mi
Dew Point: 26°   Wind: 15mph
Humidity: 31%   Direction: 300°WNW
Pressure: 29.84"   Gusts: 25mph
Location:  43.23°N, 85.79°W
Report Text: KFFX 260131Z AUTO 30013G22KT 10SM CLR 14/M03 A2984 RMK AO2 T01351035
Loading
Personal Weather Stations






























Interactive Weather Map
Tropical Storm Tracking
New forecast layout! Learn more

10-Day Weather Forecast

Advertisements
Track Severe Weather on mobile